sensor_id;sensor_type;location;lat;lon;timestamp;pressure;altitude;pressure_sealevel;temperature;humidity
64139;BME280;50435;43.700;-79.318;2023-01-27T00:00:38;99702.70;;;0.84;51.18
64139;BME280;50435;43.700;-79.318;2023-01-27T00:03:08;99709.52;;;0.30;51.30
64139;BME280;50435;43.700;-79.318;2023-01-27T00:05:37;99708.39;;;0.75;51.34
64139;BME280;50435;43.700;-79.318;2023-01-27T00:08:05;99709.00;;;0.57;51.33
64139;BME280;50435;43.700;-79.318;2023-01-27T00:10:34;99714.57;;;0.75;51.25
64139;BME280;50435;43.700;-79.318;2023-01-27T00:13:01;99721.12;;;0.76;51.28
64139;BME280;50435;43.700;-79.318;2023-01-27T00:15:30;99724.95;;;0.76;51.32
64139;BME280;50435;43.700;-79.318;2023-01-27T00:17:58;99730.54;;;0.46;51.48
64139;BME280;50435;43.700;-79.318;2023-01-27T00:20:25;99732.81;;;0.68;51.45
64139;BME280;50435;43.700;-79.318;2023-01-27T00:22:53;99735.55;;;0.71;51.38
64139;BME280;50435;43.700;-79.318;2023-01-27T00:25:20;99734.12;;;0.80;51.12
64139;BME280;50435;43.700;-79.318;2023-01-27T00:27:47;99742.56;;;0.78;51.19
64139;BME280;50435;43.700;-79.318;2023-01-27T00:30:15;99741.06;;;0.65;51.39
64139;BME280;50435;43.700;-79.318;2023-01-27T00:32:42;99740.49;;;0.66;51.37
64139;BME280;50435;43.700;-79.318;2023-01-27T00:35:09;99743.57;;;0.22;51.35
64139;BME280;50435;43.700;-79.318;2023-01-27T00:37:37;99743.29;;;0.64;51.33
64139;BME280;50435;43.700;-79.318;2023-01-27T00:40:05;99740.41;;;0.31;51.28
64139;BME280;50435;43.700;-79.318;2023-01-27T00:42:32;99746.30;;;0.67;51.43
64139;BME280;50435;43.700;-79.318;2023-01-27T00:45:00;99746.93;;;0.65;51.40
64139;BME280;50435;43.700;-79.318;2023-01-27T00:47:27;99753.53;;;0.69;51.34
64139;BME280;50435;43.700;-79.318;2023-01-27T00:49:54;99754.89;;;0.71;51.32
64139;BME280;50435;43.700;-79.318;2023-01-27T00:52:22;99760.42;;;0.61;51.51
64139;BME280;50435;43.700;-79.318;2023-01-27T00:54:49;99760.01;;;0.73;51.32
64139;BME280;50435;43.700;-79.318;2023-01-27T00:57:17;99769.81;;;0.67;51.40
64139;BME280;50435;43.700;-79.318;2023-01-27T00:59:44;99771.33;;;0.59;51.58
64139;BME280;50435;43.700;-79.318;2023-01-27T01:02:11;99773.92;;;0.67;51.50
64139;BME280;50435;43.700;-79.318;2023-01-27T01:04:38;99777.92;;;0.69;51.37
64139;BME280;50435;43.700;-79.318;2023-01-27T01:07:06;99776.01;;;0.42;51.39
64139;BME280;50435;43.700;-79.318;2023-01-27T01:09:34;99780.25;;;0.76;51.19
64139;BME280;50435;43.700;-79.318;2023-01-27T01:12:02;99786.81;;;0.71;51.23
64139;BME280;50435;43.700;-79.318;2023-01-27T01:14:30;99789.37;;;0.44;51.33
64139;BME280;50435;43.700;-79.318;2023-01-27T01:16:57;99792.64;;;0.59;51.57
64139;BME280;50435;43.700;-79.318;2023-01-27T01:19:24;99793.96;;;0.55;51.62
64139;BME280;50435;43.700;-79.318;2023-01-27T01:21:51;99796.23;;;0.55;51.59
64139;BME280;50435;43.700;-79.318;2023-01-27T01:24:19;99797.85;;;0.58;51.65
64139;BME280;50435;43.700;-79.318;2023-01-27T01:26:46;99798.55;;;0.55;51.51
64139;BME280;50435;43.700;-79.318;2023-01-27T01:29:14;99801.65;;;0.56;51.55
64139;BME280;50435;43.700;-79.318;2023-01-27T01:31:41;99803.48;;;0.59;51.53
64139;BME280;50435;43.700;-79.318;2023-01-27T01:34:09;99807.76;;;0.57;51.59
64139;BME280;50435;43.700;-79.318;2023-01-27T01:36:36;99810.09;;;0.86;51.50
64139;BME280;50435;43.700;-79.318;2023-01-27T01:39:04;99816.97;;;0.07;51.66
64139;BME280;50435;43.700;-79.318;2023-01-27T01:41:31;99815.15;;;0.59;51.51
64139;BME280;50435;43.700;-79.318;2023-01-27T01:43:58;99816.83;;;0.47;51.60
64139;BME280;50435;43.700;-79.318;2023-01-27T01:46:25;99817.67;;;0.57;51.65
64139;BME280;50435;43.700;-79.318;2023-01-27T01:48:54;99819.95;;;0.75;51.13
64139;BME280;50435;43.700;-79.318;2023-01-27T01:51:27;99820.39;;;0.69;51.17
64139;BME280;50435;43.700;-79.318;2023-01-27T01:54:00;99826.90;;;0.58;51.46
64139;BME280;50435;43.700;-79.318;2023-01-27T01:56:32;99827.03;;;0.57;51.31
64139;BME280;50435;43.700;-79.318;2023-01-27T01:59:04;99825.74;;;0.63;51.24
64139;BME280;50435;43.700;-79.318;2023-01-27T02:01:34;99830.08;;;0.58;51.36
64139;BME280;50435;43.700;-79.318;2023-01-27T02:04:06;99837.05;;;0.65;51.29
64139;BME280;50435;43.700;-79.318;2023-01-27T02:06:41;99836.53;;;0.70;51.20
64139;BME280;50435;43.700;-79.318;2023-01-27T02:09:10;99834.76;;;0.58;51.41
64139;BME280;50435;43.700;-79.318;2023-01-27T02:11:38;99836.56;;;0.60;51.40
64139;BME280;50435;43.700;-79.318;2023-01-27T02:14:05;99837.43;;;0.62;51.35
64139;BME280;50435;43.700;-79.318;2023-01-27T02:16:32;99834.94;;;0.52;51.52
64139;BME280;50435;43.700;-79.318;2023-01-27T02:19:00;99834.62;;;0.78;51.52
64139;BME280;50435;43.700;-79.318;2023-01-27T02:21:28;99835.68;;;0.58;51.40
64139;BME280;50435;43.700;-79.318;2023-01-27T02:23:59;99838.60;;;0.63;51.32
64139;BME280;50435;43.700;-79.318;2023-01-27T02:26:29;99842.13;;;0.59;51.41
64139;BME280;50435;43.700;-79.318;2023-01-27T02:29:01;99843.14;;;0.56;51.34
64139;BME280;50435;43.700;-79.318;2023-01-27T02:31:29;99848.08;;;0.57;51.48
64139;BME280;50435;43.700;-79.318;2023-01-27T02:34:00;99845.48;;;0.61;51.29
64139;BME280;50435;43.700;-79.318;2023-01-27T02:36:33;99846.74;;;0.57;51.40
64139;BME280;50435;43.700;-79.318;2023-01-27T02:39:02;99850.54;;;0.55;51.45
64139;BME280;50435;43.700;-79.318;2023-01-27T02:41:34;99849.27;;;0.46;51.53
64139;BME280;50435;43.700;-79.318;2023-01-27T02:44:03;99848.68;;;0.48;51.91
64139;BME280;50435;43.700;-79.318;2023-01-27T02:46:31;99847.59;;;0.38;51.40
64139;BME280;50435;43.700;-79.318;2023-01-27T02:48:58;99847.30;;;0.53;51.45
64139;BME280;50435;43.700;-79.318;2023-01-27T02:51:25;99850.34;;;0.43;51.66
64139;BME280;50435;43.700;-79.318;2023-01-27T02:53:53;99852.57;;;0.53;51.55
64139;BME280;50435;43.700;-79.318;2023-01-27T02:56:20;99850.59;;;0.50;51.89
64139;BME280;50435;43.700;-79.318;2023-01-27T02:58:47;99849.14;;;0.55;51.48
64139;BME280;50435;43.700;-79.318;2023-01-27T03:01:15;99854.21;;;0.57;51.43
64139;BME280;50435;43.700;-79.318;2023-01-27T03:03:42;99855.16;;;0.50;51.51
64139;BME280;50435;43.700;-79.318;2023-01-27T03:06:10;99859.62;;;0.28;51.58
64139;BME280;50435;43.700;-79.318;2023-01-27T03:08:37;99856.57;;;0.61;51.34
64139;BME280;50435;43.700;-79.318;2023-01-27T03:11:05;99855.06;;;-0.18;51.60
64139;BME280;50435;43.700;-79.318;2023-01-27T03:13:33;99855.55;;;0.61;51.41
64139;BME280;50435;43.700;-79.318;2023-01-27T03:16:01;99856.93;;;0.56;51.56
64139;BME280;50435;43.700;-79.318;2023-01-27T03:18:28;99855.44;;;0.52;51.60
64139;BME280;50435;43.700;-79.318;2023-01-27T03:21:00;99855.25;;;0.54;51.56
64139;BME280;50435;43.700;-79.318;2023-01-27T03:23:29;99854.56;;;0.53;51.60
64139;BME280;50435;43.700;-79.318;2023-01-27T03:25:56;99857.35;;;0.51;51.64
64139;BME280;50435;43.700;-79.318;2023-01-27T03:28:24;99861.05;;;0.58;51.58
64139;BME280;50435;43.700;-79.318;2023-01-27T03:30:51;99861.93;;;0.51;51.74
64139;BME280;50435;43.700;-79.318;2023-01-27T03:33:24;99863.98;;;0.48;51.62
64139;BME280;50435;43.700;-79.318;2023-01-27T03:35:51;99859.99;;;0.45;51.74
64139;BME280;50435;43.700;-79.318;2023-01-27T03:38:18;99858.98;;;0.45;51.82
64139;BME280;50435;43.700;-79.318;2023-01-27T03:40:46;99860.94;;;0.58;51.54
64139;BME280;50435;43.700;-79.318;2023-01-27T03:43:13;99858.68;;;0.33;51.63
64139;BME280;50435;43.700;-79.318;2023-01-27T03:45:44;99862.30;;;0.54;51.56
64139;BME280;50435;43.700;-79.318;2023-01-27T03:48:14;99866.15;;;0.33;51.58
64139;BME280;50435;43.700;-79.318;2023-01-27T03:50:41;99864.77;;;0.54;51.62
64139;BME280;50435;43.700;-79.318;2023-01-27T03:53:09;99862.85;;;0.09;51.66
64139;BME280;50435;43.700;-79.318;2023-01-27T03:55:37;99862.16;;;0.50;51.70
64139;BME280;50435;43.700;-79.318;2023-01-27T03:58:16;99860.61;;;0.02;51.81
64139;BME280;50435;43.700;-79.318;2023-01-27T04:00:44;99860.34;;;0.50;51.77
64139;BME280;50435;43.700;-79.318;2023-01-27T04:03:12;99855.92;;;0.44;51.97
64139;BME280;50435;43.700;-79.318;2023-01-27T04:05:39;99853.56;;;0.63;51.51
64139;BME280;50435;43.700;-79.318;2023-01-27T04:08:07;99850.39;;;0.35;51.63
64139;BME280;50435;43.700;-79.318;2023-01-27T04:10:34;99848.69;;;0.75;51.89
64139;BME280;50435;43.700;-79.318;2023-01-27T04:13:01;99844.24;;;0.47;51.92
64139;BME280;50435;43.700;-79.318;2023-01-27T04:15:28;99845.52;;;0.48;51.83
64139;BME280;50435;43.700;-79.318;2023-01-27T04:17:56;99837.69;;;0.57;51.67
64139;BME280;50435;43.700;-79.318;2023-01-27T04:20:24;99835.00;;;0.49;51.92
64139;BME280;50435;43.700;-79.318;2023-01-27T04:22:51;99838.01;;;0.49;51.89
64139;BME280;50435;43.700;-79.318;2023-01-27T04:25:18;99842.41;;;0.50;51.81
64139;BME280;50435;43.700;-79.318;2023-01-27T04:27:46;99843.62;;;0.48;51.90
64139;BME280;50435;43.700;-79.318;2023-01-27T04:30:14;99843.67;;;0.51;51.89
64139;BME280;50435;43.700;-79.318;2023-01-27T04:32:41;99842.51;;;0.59;51.65
64139;BME280;50435;43.700;-79.318;2023-01-27T04:35:08;99841.24;;;0.07;51.82
64139;BME280;50435;43.700;-79.318;2023-01-27T04:37:36;99840.35;;;0.50;51.84
64139;BME280;50435;43.700;-79.318;2023-01-27T04:40:04;99839.54;;;0.34;51.71
64139;BME280;50435;43.700;-79.318;2023-01-27T04:42:32;99838.84;;;0.59;51.70
64139;BME280;50435;43.700;-79.318;2023-01-27T04:44:59;99841.10;;;0.51;51.84
64139;BME280;50435;43.700;-79.318;2023-01-27T04:47:26;99832.81;;;0.51;51.96
64139;BME280;50435;43.700;-79.318;2023-01-27T04:49:54;99831.56;;;0.62;51.68
64139;BME280;50435;43.700;-79.318;2023-01-27T04:52:21;99833.08;;;0.62;51.72
64139;BME280;50435;43.700;-79.318;2023-01-27T04:54:48;99828.12;;;0.59;51.77
64139;BME280;50435;43.700;-79.318;2023-01-27T04:57:16;99832.27;;;0.59;51.81
64139;BME280;50435;43.700;-79.318;2023-01-27T04:59:43;99830.91;;;0.81;51.89
64139;BME280;50435;43.700;-79.318;2023-01-27T05:02:10;99830.89;;;0.55;51.95
64139;BME280;50435;43.700;-79.318;2023-01-27T05:04:38;99836.90;;;0.59;51.80
64139;BME280;50435;43.700;-79.318;2023-01-27T05:07:06;99837.60;;;0.09;51.95
64139;BME280;50435;43.700;-79.318;2023-01-27T05:09:33;99837.42;;;0.60;51.78
64139;BME280;50435;43.700;-79.318;2023-01-27T05:12:01;99835.02;;;0.59;51.81
64139;BME280;50435;43.700;-79.318;2023-01-27T05:14:28;99837.32;;;0.57;51.92
64139;BME280;50435;43.700;-79.318;2023-01-27T05:16:56;99839.47;;;0.57;51.96
64139;BME280;50435;43.700;-79.318;2023-01-27T05:19:23;99834.72;;;0.33;52.03
64139;BME280;50435;43.700;-79.318;2023-01-27T05:21:51;99842.66;;;0.62;51.79
64139;BME280;50435;43.700;-79.318;2023-01-27T05:24:19;99840.34;;;0.57;51.91
64139;BME280;50435;43.700;-79.318;2023-01-27T05:26:46;99842.62;;;0.56;51.92
64139;BME280;50435;43.700;-79.318;2023-01-27T05:29:14;99837.84;;;0.64;51.86
64139;BME280;50435;43.700;-79.318;2023-01-27T05:31:41;99834.57;;;0.60;51.92
64139;BME280;50435;43.700;-79.318;2023-01-27T05:34:09;99839.15;;;0.49;52.18
64139;BME280;50435;43.700;-79.318;2023-01-27T05:36:36;99834.73;;;0.27;52.21
64139;BME280;50435;43.700;-79.318;2023-01-27T05:39:03;99833.38;;;0.49;52.19
64139;BME280;50435;43.700;-79.318;2023-01-27T05:41:31;99832.57;;;0.46;52.30
64139;BME280;50435;43.700;-79.318;2023-01-27T05:43:59;99831.52;;;0.31;52.11
64139;BME280;50435;43.700;-79.318;2023-01-27T05:46:28;99829.06;;;0.58;52.05
64139;BME280;50435;43.700;-79.318;2023-01-27T05:48:58;99831.57;;;0.62;51.98
64139;BME280;50435;43.700;-79.318;2023-01-27T05:51:28;99831.77;;;0.63;51.98
64139;BME280;50435;43.700;-79.318;2023-01-27T05:53:56;99834.60;;;0.50;52.26
64139;BME280;50435;43.700;-79.318;2023-01-27T05:56:23;99832.20;;;0.57;52.11
64139;BME280;50435;43.700;-79.318;2023-01-27T05:58:52;99833.43;;;0.63;52.02
64139;BME280;50435;43.700;-79.318;2023-01-27T06:01:22;99832.79;;;0.66;52.02
64139;BME280;50435;43.700;-79.318;2023-01-27T06:03:50;99827.83;;;0.58;52.15
64139;BME280;50435;43.700;-79.318;2023-01-27T06:07:22;99830.98;;;0.84;51.60
64139;BME280;50435;43.700;-79.318;2023-01-27T06:09:49;99825.15;;;0.40;52.16
64139;BME280;50435;43.700;-79.318;2023-01-27T06:12:16;99825.50;;;0.72;51.91
64139;BME280;50435;43.700;-79.318;2023-01-27T06:14:43;99823.93;;;0.67;52.01
64139;BME280;50435;43.700;-79.318;2023-01-27T06:17:11;99827.20;;;0.48;51.89
64139;BME280;50435;43.700;-79.318;2023-01-27T06:19:38;99831.25;;;0.81;51.66
64139;BME280;50435;43.700;-79.318;2023-01-27T06:22:06;99828.43;;;0.24;51.97
64139;BME280;50435;43.700;-79.318;2023-01-27T06:24:33;99835.79;;;0.75;51.84
64139;BME280;50435;43.700;-79.318;2023-01-27T06:27:00;99834.55;;;0.80;51.68
64139;BME280;50435;43.700;-79.318;2023-01-27T06:29:27;99840.64;;;0.74;51.84
64139;BME280;50435;43.700;-79.318;2023-01-27T06:31:55;99844.60;;;0.84;51.57
64139;BME280;50435;43.700;-79.318;2023-01-27T06:34:22;99846.86;;;0.97;51.31
64139;BME280;50435;43.700;-79.318;2023-01-27T06:36:52;99850.52;;;0.81;51.52
64139;BME280;50435;43.700;-79.318;2023-01-27T06:39:20;99851.22;;;0.76;51.69
64139;BME280;50435;43.700;-79.318;2023-01-27T06:41:48;99853.90;;;0.74;51.74
64139;BME280;50435;43.700;-79.318;2023-01-27T06:44:16;99852.00;;;0.75;51.78
64139;BME280;50435;43.700;-79.318;2023-01-27T06:46:43;99853.22;;;0.78;51.69
64139;BME280;50435;43.700;-79.318;2023-01-27T06:49:11;99851.47;;;0.71;51.85
64139;BME280;50435;43.700;-79.318;2023-01-27T06:51:38;99858.43;;;0.76;51.73
64139;BME280;50435;43.700;-79.318;2023-01-27T06:54:06;99859.32;;;0.30;51.83
64139;BME280;50435;43.700;-79.318;2023-01-27T06:56:33;99863.98;;;0.73;51.84
64139;BME280;50435;43.700;-79.318;2023-01-27T06:59:01;99868.64;;;0.74;51.74
64139;BME280;50435;43.700;-79.318;2023-01-27T07:01:28;99868.35;;;0.64;52.06
64139;BME280;50435;43.700;-79.318;2023-01-27T07:03:56;99869.28;;;0.47;51.98
64139;BME280;50435;43.700;-79.318;2023-01-27T07:06:23;99871.44;;;0.72;51.92
64139;BME280;50435;43.700;-79.318;2023-01-27T07:08:50;99874.55;;;0.81;51.76
64139;BME280;50435;43.700;-79.318;2023-01-27T07:11:18;99877.14;;;0.69;51.97
64139;BME280;50435;43.700;-79.318;2023-01-27T07:13:45;99878.33;;;0.63;52.16
64139;BME280;50435;43.700;-79.318;2023-01-27T07:16:13;99883.41;;;0.65;52.08
64139;BME280;50435;43.700;-79.318;2023-01-27T07:18:40;99882.27;;;0.66;52.16
64139;BME280;50435;43.700;-79.318;2023-01-27T07:21:08;99884.01;;;0.68;52.04
64139;BME280;50435;43.700;-79.318;2023-01-27T07:23:36;99885.53;;;0.47;51.96
64139;BME280;50435;43.700;-79.318;2023-01-27T07:26:03;99881.66;;;0.78;51.88
64139;BME280;50435;43.700;-79.318;2023-01-27T07:28:31;99883.55;;;0.69;52.03
64139;BME280;50435;43.700;-79.318;2023-01-27T07:31:00;99883.79;;;0.70;51.95
64139;BME280;50435;43.700;-79.318;2023-01-27T07:33:28;99886.46;;;0.72;52.08
64139;BME280;50435;43.700;-79.318;2023-01-27T07:35:56;99886.95;;;0.80;51.78
64139;BME280;50435;43.700;-79.318;2023-01-27T07:38:23;99891.81;;;0.79;51.82
64139;BME280;50435;43.700;-79.318;2023-01-27T07:40:51;99887.78;;;0.76;51.88
64139;BME280;50435;43.700;-79.318;2023-01-27T07:43:18;99889.13;;;0.48;51.97
64139;BME280;50435;43.700;-79.318;2023-01-27T07:45:45;99889.09;;;0.69;52.06
64139;BME280;50435;43.700;-79.318;2023-01-27T07:48:13;99889.93;;;0.43;52.11
64139;BME280;50435;43.700;-79.318;2023-01-27T07:50:41;99890.58;;;0.67;52.28
64139;BME280;50435;43.700;-79.318;2023-01-27T07:53:09;99892.91;;;0.45;52.18
64139;BME280;50435;43.700;-79.318;2023-01-27T07:55:37;99894.28;;;0.68;52.04
64139;BME280;50435;43.700;-79.318;2023-01-27T07:58:04;99893.58;;;0.13;52.27
64139;BME280;50435;43.700;-79.318;2023-01-27T08:00:32;99892.86;;;0.61;52.27
64139;BME280;50435;43.700;-79.318;2023-01-27T08:03:01;99894.45;;;0.59;52.57
64139;BME280;50435;43.700;-79.318;2023-01-27T08:05:32;99898.48;;;0.62;52.14
64139;BME280;50435;43.700;-79.318;2023-01-27T08:08:00;99895.09;;;0.57;52.28
64139;BME280;50435;43.700;-79.318;2023-01-27T08:10:27;99893.83;;;0.55;52.54
64139;BME280;50435;43.700;-79.318;2023-01-27T08:12:55;99897.55;;;0.52;52.44
64139;BME280;50435;43.700;-79.318;2023-01-27T08:15:22;99899.96;;;0.49;52.55
64139;BME280;50435;43.700;-79.318;2023-01-27T08:17:54;99901.63;;;0.76;52.51
64139;BME280;50435;43.700;-79.318;2023-01-27T08:20:22;99902.63;;;0.48;52.61
64139;BME280;50435;43.700;-79.318;2023-01-27T08:22:50;99900.69;;;0.48;52.65
64139;BME280;50435;43.700;-79.318;2023-01-27T08:25:17;99902.39;;;0.30;52.45
64139;BME280;50435;43.700;-79.318;2023-01-27T08:27:49;99906.86;;;0.40;52.92
64139;BME280;50435;43.700;-79.318;2023-01-27T08:30:17;99911.46;;;0.39;52.98
64139;BME280;50435;43.700;-79.318;2023-01-27T08:32:44;99909.62;;;0.48;52.67
64139;BME280;50435;43.700;-79.318;2023-01-27T08:35:12;99910.54;;;0.36;53.01
64139;BME280;50435;43.700;-79.318;2023-01-27T08:37:40;99914.67;;;0.43;52.71
64139;BME280;50435;43.700;-79.318;2023-01-27T08:40:08;99909.51;;;0.48;52.54
64139;BME280;50435;43.700;-79.318;2023-01-27T08:42:36;99909.70;;;0.52;52.36
64139;BME280;50435;43.700;-79.318;2023-01-27T08:45:04;99906.46;;;0.47;52.65
64139;BME280;50435;43.700;-79.318;2023-01-27T08:47:31;99898.95;;;0.40;52.64
64139;BME280;50435;43.700;-79.318;2023-01-27T08:49:58;99899.06;;;0.43;52.68
64139;BME280;50435;43.700;-79.318;2023-01-27T08:52:26;99894.29;;;0.39;52.64
64139;BME280;50435;43.700;-79.318;2023-01-27T08:54:54;99895.40;;;0.45;52.52
64139;BME280;50435;43.700;-79.318;2023-01-27T08:57:21;99892.60;;;0.40;52.72
64139;BME280;50435;43.700;-79.318;2023-01-27T08:59:48;99892.61;;;0.37;52.77
64139;BME280;50435;43.700;-79.318;2023-01-27T09:02:15;99898.54;;;0.36;52.75
64139;BME280;50435;43.700;-79.318;2023-01-27T09:04:43;99898.70;;;0.36;52.73
64139;BME280;50435;43.700;-79.318;2023-01-27T09:07:10;99898.81;;;0.39;52.71
64139;BME280;50435;43.700;-79.318;2023-01-27T09:09:38;99894.46;;;0.39;52.68
64139;BME280;50435;43.700;-79.318;2023-01-27T09:12:06;99896.83;;;0.38;52.72
64139;BME280;50435;43.700;-79.318;2023-01-27T09:14:34;99901.59;;;0.34;52.91
64139;BME280;50435;43.700;-79.318;2023-01-27T09:17:01;99899.65;;;0.34;52.85
64139;BME280;50435;43.700;-79.318;2023-01-27T09:19:29;99899.31;;;0.35;52.71
64139;BME280;50435;43.700;-79.318;2023-01-27T09:21:56;99895.64;;;0.65;52.73
64139;BME280;50435;43.700;-79.318;2023-01-27T09:24:23;99893.08;;;0.20;53.17
64139;BME280;50435;43.700;-79.318;2023-01-27T09:26:51;99899.23;;;0.25;52.98
64139;BME280;50435;43.700;-79.318;2023-01-27T09:29:19;99908.19;;;0.26;53.07
64139;BME280;50435;43.700;-79.318;2023-01-27T09:31:46;99911.76;;;0.31;52.80
64139;BME280;50435;43.700;-79.318;2023-01-27T09:34:13;99911.56;;;0.33;52.72
64139;BME280;50435;43.700;-79.318;2023-01-27T09:36:44;99917.91;;;0.30;52.83
64139;BME280;50435;43.700;-79.318;2023-01-27T09:39:15;99921.27;;;0.20;53.07
64139;BME280;50435;43.700;-79.318;2023-01-27T09:42:05;99924.48;;;0.70;53.10
64139;BME280;50435;43.700;-79.318;2023-01-27T09:44:50;99925.37;;;0.34;52.69
64139;BME280;50435;43.700;-79.318;2023-01-27T09:47:31;99921.78;;;0.33;52.87
64139;BME280;50435;43.700;-79.318;2023-01-27T09:50:16;99923.65;;;0.29;52.83
64139;BME280;50435;43.700;-79.318;2023-01-27T09:53:03;99926.06;;;0.20;53.04
64139;BME280;50435;43.700;-79.318;2023-01-27T09:55:41;99924.08;;;0.31;52.73
64139;BME280;50435;43.700;-79.318;2023-01-27T09:58:17;99925.09;;;0.23;52.89
64139;BME280;50435;43.700;-79.318;2023-01-27T10:00:58;99923.01;;;0.55;52.78
64139;BME280;50435;43.700;-79.318;2023-01-27T10:03:40;99921.50;;;0.19;52.95
64139;BME280;50435;43.700;-79.318;2023-01-27T10:06:24;99917.84;;;0.19;52.93
64139;BME280;50435;43.700;-79.318;2023-01-27T10:09:23;99921.06;;;0.26;52.78
64139;BME280;50435;43.700;-79.318;2023-01-27T10:11:58;99924.53;;;0.76;52.79
64139;BME280;50435;43.700;-79.318;2023-01-27T10:14:39;99924.37;;;0.24;52.90
64139;BME280;50435;43.700;-79.318;2023-01-27T10:17:20;99925.57;;;0.23;52.78
64139;BME280;50435;43.700;-79.318;2023-01-27T10:20:06;99930.88;;;0.21;52.83
64139;BME280;50435;43.700;-79.318;2023-01-27T10:22:43;99931.82;;;0.59;53.07
64139;BME280;50435;43.700;-79.318;2023-01-27T10:25:21;99935.01;;;0.25;52.88
64139;BME280;50435;43.700;-79.318;2023-01-27T10:27:55;99936.24;;;0.26;52.80
64139;BME280;50435;43.700;-79.318;2023-01-27T10:30:28;99940.02;;;0.42;52.91
64139;BME280;50435;43.700;-79.318;2023-01-27T10:33:03;99943.63;;;0.18;52.90
64139;BME280;50435;43.700;-79.318;2023-01-27T10:35:39;99937.14;;;0.50;52.72
64139;BME280;50435;43.700;-79.318;2023-01-27T10:38:16;99931.61;;;0.25;52.66
64139;BME280;50435;43.700;-79.318;2023-01-27T10:40:53;99934.17;;;0.09;52.89
64139;BME280;50435;43.700;-79.318;2023-01-27T10:43:26;99936.37;;;0.18;52.74
64139;BME280;50435;43.700;-79.318;2023-01-27T10:46:05;99941.27;;;0.12;52.84
64139;BME280;50435;43.700;-79.318;2023-01-27T10:48:40;99941.14;;;0.23;52.84
64139;BME280;50435;43.700;-79.318;2023-01-27T10:51:13;99945.66;;;0.23;52.69
64139;BME280;50435;43.700;-79.318;2023-01-27T10:53:51;99944.19;;;0.23;52.68
64139;BME280;50435;43.700;-79.318;2023-01-27T10:56:27;99944.98;;;0.18;52.70
64139;BME280;50435;43.700;-79.318;2023-01-27T10:59:02;99952.87;;;0.29;52.50
64139;BME280;50435;43.700;-79.318;2023-01-27T11:01:34;99959.02;;;0.25;52.59
64139;BME280;50435;43.700;-79.318;2023-01-27T11:04:10;99963.05;;;-0.20;52.62
64139;BME280;50435;43.700;-79.318;2023-01-27T11:06:41;99966.39;;;0.34;52.45
64139;BME280;50435;43.700;-79.318;2023-01-27T11:09:20;99971.07;;;0.15;53.08
64139;BME280;50435;43.700;-79.318;2023-01-27T11:11:50;99979.71;;;0.47;53.00
64139;BME280;50435;43.700;-79.318;2023-01-27T11:14:24;99980.48;;;-0.13;53.20
64139;BME280;50435;43.700;-79.318;2023-01-27T11:16:54;99977.45;;;0.26;52.83
64139;BME280;50435;43.700;-79.318;2023-01-27T11:19:33;99980.84;;;0.20;52.90
64139;BME280;50435;43.700;-79.318;2023-01-27T11:22:02;99978.56;;;0.21;53.07
64139;BME280;50435;43.700;-79.318;2023-01-27T11:24:37;99977.97;;;0.24;53.03
64139;BME280;50435;43.700;-79.318;2023-01-27T11:27:17;99983.18;;;0.31;52.84
64139;BME280;50435;43.700;-79.318;2023-01-27T11:29:53;99994.47;;;0.26;53.02
64139;BME280;50435;43.700;-79.318;2023-01-27T11:32:32;100003.13;;;0.26;53.05
64139;BME280;50435;43.700;-79.318;2023-01-27T11:35:07;100000.68;;;0.27;53.06
64139;BME280;50435;43.700;-79.318;2023-01-27T11:37:38;100003.98;;;0.04;53.23
64139;BME280;50435;43.700;-79.318;2023-01-27T11:40:16;100005.86;;;0.53;53.02
64139;BME280;50435;43.700;-79.318;2023-01-27T11:42:44;100005.63;;;0.21;53.26
64139;BME280;50435;43.700;-79.318;2023-01-27T11:45:14;100007.30;;;0.28;53.14
64139;BME280;50435;43.700;-79.318;2023-01-27T11:47:44;100010.35;;;0.35;52.78
64139;BME280;50435;43.700;-79.318;2023-01-27T11:50:14;100017.64;;;0.40;52.73
64139;BME280;50435;43.700;-79.318;2023-01-27T11:52:43;100024.90;;;0.64;53.00
64139;BME280;50435;43.700;-79.318;2023-01-27T11:55:17;100030.31;;;0.22;53.54
64139;BME280;50435;43.700;-79.318;2023-01-27T11:57:49;100028.55;;;0.28;53.14
64139;BME280;50435;43.700;-79.318;2023-01-27T12:00:21;100027.57;;;0.28;53.33
64139;BME280;50435;43.700;-79.318;2023-01-27T12:02:57;100030.23;;;0.31;53.31
64139;BME280;50435;43.700;-79.318;2023-01-27T12:05:30;100030.22;;;0.31;53.16
64139;BME280;50435;43.700;-79.318;2023-01-27T12:07:59;100034.50;;;0.42;52.96
64139;BME280;50435;43.700;-79.318;2023-01-27T12:10:30;100034.58;;;0.31;53.32
64139;BME280;50435;43.700;-79.318;2023-01-27T12:13:08;100037.75;;;0.31;53.29
64139;BME280;50435;43.700;-79.318;2023-01-27T12:15:36;100036.00;;;0.33;53.29
64139;BME280;50435;43.700;-79.318;2023-01-27T12:18:14;100035.84;;;0.27;53.46
64139;BME280;50435;43.700;-79.318;2023-01-27T12:20:43;100038.04;;;0.63;53.19
64139;BME280;50435;43.700;-79.318;2023-01-27T12:23:20;100047.61;;;0.28;53.51
64139;BME280;50435;43.700;-79.318;2023-01-27T12:25:52;100047.87;;;0.09;53.20
64139;BME280;50435;43.700;-79.318;2023-01-27T12:28:27;100050.71;;;0.25;53.57
64139;BME280;50435;43.700;-79.318;2023-01-27T12:31:03;100059.78;;;0.27;53.57
64139;BME280;50435;43.700;-79.318;2023-01-27T12:33:33;100065.44;;;0.30;53.54
64139;BME280;50435;43.700;-79.318;2023-01-27T12:36:09;100070.11;;;0.41;53.11
64139;BME280;50435;43.700;-79.318;2023-01-27T12:38:44;100073.75;;;0.25;53.53
64139;BME280;50435;43.700;-79.318;2023-01-27T12:41:20;100074.92;;;0.29;53.46
64139;BME280;50435;43.700;-79.318;2023-01-27T12:43:51;100071.28;;;0.28;53.52
64139;BME280;50435;43.700;-79.318;2023-01-27T12:46:23;100075.59;;;0.25;53.67
64139;BME280;50435;43.700;-79.318;2023-01-27T12:48:53;100077.26;;;0.25;53.73
64139;BME280;50435;43.700;-79.318;2023-01-27T12:51:23;100076.89;;;0.34;53.49
64139;BME280;50435;43.700;-79.318;2023-01-27T12:54:13;100086.41;;;0.31;53.61
64139;BME280;50435;43.700;-79.318;2023-01-27T12:56:42;100086.80;;;0.37;53.46
64139;BME280;50435;43.700;-79.318;2023-01-27T12:59:13;100086.61;;;0.07;53.59
64139;BME280;50435;43.700;-79.318;2023-01-27T13:01:41;100096.17;;;0.53;53.02